| time (UTC) | temp C | wind direction | speed KPH | gust KPH | rain 1hr cm | rain 24hr cm | rain mn cm | humidity % | barometer mb |
| 20260507075958 | 23 | 254 | 9.7 | 11.3 | 0.00 | 0.00 | 0.00 | 91 | 1013.3 |
| 20260507075458 | 23 | 250 | 12.9 | 14.5 | 0.00 | 0.00 | 0.00 | 91 | 1013.3 |
| 20260507074959 | 23 | 243 | 14.5 | 17.7 | 0.00 | 0.00 | 0.00 | 92 | 1013.3 |
| 20260507074500 | 23 | 232 | 11.3 | 14.5 | 0.00 | 0.00 | 0.00 | 92 | 1013.1 |
| 20260507073959 | 23 | 232 | 12.9 | 14.5 | 0.00 | 0.00 | 0.00 | 92 | 1013.1 |
| 20260507073458 | 23 | 227 | 12.9 | 14.5 | 0.00 | 0.00 | 0.00 | 92 | 1013.1 |
| 20260507072959 | 23 | 227 | 14.5 | 16.1 | 0.00 | 0.00 | 0.00 | 92 | 1013.3 |
| 20260507072459 | 23 | 224 | 12.9 | 14.5 | 0.00 | 0.00 | 0.00 | 92 | 1013.3 |
| 20260507071958 | 23 | 228 | 12.9 | 14.5 | 0.00 | 0.00 | 0.00 | 92 | 1013.4 |
| 20260507071459 | 23 | 219 | 14.5 | 16.1 | 0.00 | 0.00 | 0.00 | 92 | 1013.3 |
| 20260507071000 | 23 | 219 | 14.5 | 16.1 | 0.00 | 0.00 | 0.00 | 92 | 1013.5 |
| 20260507070459 | 23 | 225 | 14.5 | 16.1 | 0.00 | 0.00 | 0.00 | 92 | 1013.6 |
| 20260507065959 | 23 | 219 | 12.9 | 14.5 | 0.00 | 0.00 | 0.00 | 92 | 1013.6 |
| 20260507065500 | 23 | 221 | 14.5 | 14.5 | 0.00 | 0.00 | 0.00 | 92 | 1013.7 |
| 20260507064958 | 23 | 223 | 14.5 | 16.1 | 0.00 | 0.00 | 0.00 | 92 | 1013.8 |
| 20260507064458 | 23 | 226 | 9.7 | 11.3 | 0.00 | 0.00 | 0.00 | 92 | 1013.8 |
| 20260507063958 | 23 | 229 | 11.3 | 12.9 | 0.00 | 0.00 | 0.00 | 92 | 1014.1 |
| 20260507063458 | 23 | 232 | 9.7 | 11.3 | 0.00 | 0.00 | 0.00 | 92 | 1014.0 |
| 20260507062958 | 23 | 233 | 9.7 | 11.3 | 0.00 | 0.00 | 0.00 | 92 | 1014.3 |
| 20260507062458 | 23 | 226 | 9.7 | 11.3 | 0.00 | 0.00 | 0.00 | 92 | 1014.5 |
| 20260507062006 | 23 | 222 | 11.3 | 12.9 | 0.00 | 0.00 | 0.00 | 92 | 1014.4 |
| 20260507061459 | 23 | 223 | 9.7 | 9.7 | 0.00 | 0.00 | 0.00 | 92 | 1014.3 |
| 20260507060958 | 23 | 224 | 11.3 | 14.5 | 0.00 | 0.00 | 0.00 | 91 | 1014.3 |
| 20260507060458 | 23 | 219 | 9.7 | 11.3 | 0.00 | 0.00 | 0.00 | 91 | 1014.4 |
| 20260507055958 | 23 | 227 | 9.7 | 11.3 | 0.00 | 0.00 | 0.00 | 91 | 1014.7 |
| 20260507055459 | 23 | 227 | 8.0 | 9.7 | 0.00 | 0.00 | 0.00 | 91 | 1014.8 |
| 20260507054959 | 23 | 224 | 8.0 | 9.7 | 0.00 | 0.00 | 0.00 | 91 | 1014.8 |
| 20260507054458 | 23 | 232 | 8.0 | 9.7 | 0.00 | 0.00 | 0.00 | 91 | 1014.7 |
| 20260507053958 | 23 | 232 | 8.0 | 9.7 | 0.00 | 0.00 | 0.00 | 91 | 1014.8 |
| 20260507053458 | 23 | 235 | 8.0 | 9.7 | 0.00 | 0.00 | 0.00 | 91 | 1014.9 |
| 20260507052958 | 23 | 238 | 6.4 | 8.0 | 0.00 | 0.00 | 0.00 | 91 | 1014.9 |
| 20260507052458 | 23 | 234 | 6.4 | 8.0 | 0.00 | 0.00 | 0.00 | 91 | 1015.0 |
| 20260507051959 | 23 | 241 | 4.8 | 6.4 | 0.00 | 0.00 | 0.00 | 91 | 1015.1 |
| 20260507051458 | 23 | 248 | 6.4 | 8.0 | 0.00 | 0.00 | 0.00 | 91 | 1015.2 |
| 20260507050958 | 23 | 242 | 8.0 | 9.7 | 0.00 | 0.00 | 0.00 | 91 | 1015.2 |
| 20260507050458 | 23 | 251 | 8.0 | 8.0 | 0.00 | 0.00 | 0.00 | 91 | 1015.2 |
| 20260507045958 | 23 | 241 | 9.7 | 9.7 | 0.00 | 0.00 | 0.00 | 91 | 1015.2 |
| 20260507045459 | 23 | 241 | 8.0 | 9.7 | 0.00 | 0.00 | 0.00 | 91 | 1015.3 |
| 20260507044959 | 23 | 227 | 6.4 | 9.7 | 0.00 | 0.00 | 0.00 | 91 | 1015.3 |
| 20260507044500 | 23 | 236 | 8.0 | 8.0 | 0.00 | 0.00 | 0.00 | 91 | 1015.2 |
| 20260507043958 | 23 | 232 | 9.7 | 11.3 | 0.00 | 0.00 | 0.00 | 91 | 1015.2 |
| 20260507043458 | 23 | 220 | 12.9 | 14.5 | 0.00 | 0.00 | 0.00 | 91 | 1015.2 |
| 20260507042958 | 23 | 223 | 11.3 | 12.9 | 0.00 | 0.00 | 0.00 | 91 | 1015.4 |
| 20260507042500 | 23 | 216 | 11.3 | 16.1 | 0.00 | 0.00 | 0.00 | 91 | 1015.3 |
| 20260507042000 | 23 | 209 | 11.3 | 16.1 | 0.00 | 0.00 | 0.00 | 91 | 1015.3 |
| 20260507041458 | 23 | 210 | 11.3 | 12.9 | 0.00 | 0.00 | 0.00 | 91 | 1015.3 |
| 20260507040958 | 23 | 211 | 12.9 | 14.5 | 0.00 | 0.00 | 0.00 | 91 | 1015.3 |
| 20260507040458 | 23 | 207 | 12.9 | 14.5 | 0.00 | 0.00 | 0.00 | 91 | 1015.2 |
| 20260507035959 | 23 | 217 | 12.9 | 14.5 | 0.00 | 0.00 | 0.00 | 91 | 1015.5 |
| 20260507035009 | 23 | 216 | 12.9 | 14.5 | 0.00 | 0.00 | 0.00 | 90 | 1015.7 |
| 20260507034459 | 23 | 208 | 11.3 | 12.9 | 0.00 | 0.00 | 0.00 | 90 | 1015.7 |
| 20260507033958 | 23 | 219 | 11.3 | 12.9 | 0.00 | 0.00 | 0.00 | 90 | 1015.8 |
| 20260507033459 | 23 | 221 | 9.7 | 11.3 | 0.00 | 0.00 | 0.00 | 90 | 1015.8 |
| 20260507032958 | 23 | 216 | 9.7 | 12.9 | 0.00 | 0.00 | 0.00 | 90 | 1015.7 |
| 20260507032458 | 23 | 219 | 11.3 | 12.9 | 0.00 | 0.00 | 0.00 | 90 | 1015.7 |
| 20260507031958 | 23 | 211 | 11.3 | 12.9 | 0.00 | 0.00 | 0.00 | 90 | 1015.7 |
| 20260507031458 | 23 | 221 | 9.7 | 12.9 | 0.00 | 0.00 | 0.00 | 90 | 1015.8 |
| 20260507031001 | 23 | 215 | 8.0 | 9.7 | 0.00 | 0.00 | 0.00 | 90 | 1015.7 |
| 20260507030458 | 23 | 208 | 11.3 | 12.9 | 0.00 | 0.00 | 0.00 | 90 | 1015.5 |
| 20260507025958 | 23 | 207 | 11.3 | 14.5 | 0.00 | 0.00 | 0.00 | 90 | 1015.5 |
| 20260507025458 | 23 | 205 | 11.3 | 14.5 | 0.00 | 0.00 | 0.00 | 89 | 1015.6 |
| 20260507024958 | 23 | 202 | 16.1 | 19.3 | 0.00 | 0.00 | 0.00 | 89 | 1015.4 |
| 20260507024015 | 23 | 206 | 14.5 | 16.1 | 0.00 | 0.00 | 0.00 | 89 | 1015.4 |
| 20260507023458 | 23 | 213 | 12.9 | 14.5 | 0.00 | 0.00 | 0.00 | 89 | 1015.4 |
| 20260507022959 | 23 | 213 | 12.9 | 14.5 | 0.00 | 0.00 | 0.00 | 89 | 1015.5 |
| 20260507022459 | 23 | 196 | 9.7 | 12.9 | 0.00 | 0.00 | 0.00 | 89 | 1015.4 |
| 20260507021958 | 23 | 206 | 11.3 | 12.9 | 0.00 | 0.00 | 0.00 | 89 | 1015.3 |
| 20260507021458 | 23 | 196 | 14.5 | 16.1 | 0.00 | 0.00 | 0.00 | 89 | 1015.4 |
| 20260507020958 | 23 | 194 | 14.5 | 17.7 | 0.00 | 0.00 | 0.00 | 89 | 1015.2 |
| 20260507020459 | 23 | 184 | 16.1 | 17.7 | 0.00 | 0.00 | 0.00 | 89 | 1015.0 |
| 20260507015959 | 23 | 184 | 14.5 | 17.7 | 0.00 | 0.00 | 0.00 | 89 | 1015.2 |
| 20260507015458 | 23 | 183 | 14.5 | 16.1 | 0.00 | 0.00 | 0.00 | 89 | 1015.3 |
| 20260507014958 | 23 | 178 | 11.3 | 12.9 | 0.00 | 0.00 | 0.00 | 89 | 1015.4 |
| 20260507014458 | 23 | 184 | 12.9 | 16.1 | 0.00 | 0.00 | 0.00 | 89 | 1015.4 |
| 20260507013958 | 23 | 171 | 12.9 | 16.1 | 0.00 | 0.00 | 0.00 | 89 | 1015.2 |
| 20260507013458 | 23 | 183 | 11.3 | 12.9 | 0.00 | 0.00 | 0.00 | 89 | 1015.5 |
| 20260507012958 | 23 | 192 | 9.7 | 11.3 | 0.00 | 0.00 | 0.00 | 90 | 1015.4 |
| 20260507012458 | 23 | 207 | 11.3 | 12.9 | 0.00 | 0.00 | 0.00 | 90 | 1015.4 |
| 20260507011959 | 23 | 206 | 9.7 | 11.3 | 0.00 | 0.00 | 0.00 | 90 | 1015.5 |
| 20260507011458 | 23 | 190 | 11.3 | 12.9 | 0.00 | 0.00 | 0.00 | 90 | 1015.5 |
| 20260507010958 | 23 | 187 | 12.9 | 14.5 | 0.00 | 0.00 | 0.00 | 89 | 1015.5 |
| 20260507010459 | 23 | 202 | 14.5 | 17.7 | 0.00 | 0.00 | 0.00 | 89 | 1015.4 |
| 20260507005958 | 23 | 200 | 14.5 | 16.1 | 0.00 | 0.00 | 0.00 | 89 | 1015.3 |
| 20260507005458 | 23 | 205 | 14.5 | 16.1 | 0.00 | 0.00 | 0.00 | 89 | 1015.4 |
| 20260507004958 | 23 | 208 | 14.5 | 17.7 | 0.00 | 0.00 | 0.00 | 90 | 1015.3 |
| 20260507004459 | 23 | 202 | 12.9 | 14.5 | 0.00 | 0.00 | 0.00 | 90 | 1015.3 |
| 20260507003958 | 23 | 212 | 12.9 | 16.1 | 0.00 | 0.00 | 0.00 | 90 | 1015.3 |
| 20260507003458 | 23 | 216 | 14.5 | 19.3 | 0.00 | 0.00 | 0.00 | 89 | 1015.3 |
| 20260507002958 | 23 | 212 | 14.5 | 16.1 | 0.00 | 0.00 | 0.00 | 90 | 1015.2 |
| 20260507002458 | 23 | 205 | 16.1 | 17.7 | 0.00 | 0.00 | 0.00 | 89 | 1015.2 |
| 20260507001958 | 23 | 208 | 16.1 | 16.1 | 0.00 | 0.00 | 0.00 | 89 | 1015.2 |
| 20260507001458 | 23 | 211 | 14.5 | 17.7 | 0.00 | 0.00 | 0.00 | 88 | 1015.1 |
| 20260507000958 | 23 | 206 | 16.1 | 19.3 | 0.00 | 0.00 | 0.00 | 89 | 1015.0 |
| 20260507000459 | 23 | 207 | 17.7 | 22.5 | 0.00 | 0.00 | 0.00 | 88 | 1015.0 |
| 20260506235958 | 23 | 207 | 17.7 | 19.3 | 0.00 | 0.00 | 0.00 | 88 | 1014.9 |
| 20260506235458 | 24 | 205 | 16.1 | 20.9 | 0.00 | 0.00 | 0.00 | 88 | 1015.0 |
| 20260506235000 | 24 | 210 | 19.3 | 24.1 | 0.00 | 0.00 | 0.00 | 87 | 1015.0 |
| 20260506234458 | 24 | 213 | 20.9 | 24.1 | 0.00 | 0.00 | 0.00 | 87 | 1015.0 |
| 20260506233958 | 24 | 209 | 17.7 | 22.5 | 0.00 | 0.00 | 0.00 | 87 | 1014.9 |
| 20260506233459 | 24 | 214 | 19.3 | 24.1 | 0.00 | 0.00 | 0.00 | 87 | 1015.0 |
| 20260506232959 | 24 | 201 | 20.9 | 24.1 | 0.00 | 0.00 | 0.00 | 88 | 1015.1 |
| 20260506232459 | 24 | 214 | 22.5 | 25.7 | 0.00 | 0.00 | 0.00 | 87 | 1015.0 |
| 20260506231958 | 24 | 207 | 19.3 | 20.9 | 0.00 | 0.00 | 0.00 | 87 | 1015.3 |
| 20260506231458 | 24 | 206 | 20.9 | 25.7 | 0.00 | 0.00 | 0.00 | 87 | 1015.1 |
| 20260506230959 | 24 | 205 | 17.7 | 22.5 | 0.00 | 0.00 | 0.00 | 87 | 1014.9 |
| 20260506230458 | 24 | 209 | 17.7 | 24.1 | 0.00 | 0.00 | 0.00 | 86 | 1015.2 |
| 20260506225958 | 24 | 213 | 22.5 | 24.1 | 0.00 | 0.00 | 0.00 | 86 | 1015.4 |
| 20260506225458 | 24 | 211 | 19.3 | 22.5 | 0.00 | 0.00 | 0.00 | 87 | 1015.3 |
| 20260506224959 | 24 | 206 | 22.5 | 25.7 | 0.00 | 0.00 | 0.00 | 86 | 1015.1 |
| 20260506224458 | 24 | 216 | 24.1 | 27.4 | 0.00 | 0.00 | 0.00 | 84 | 1015.1 |
| 20260506223958 | 24 | 218 | 22.5 | 25.7 | 0.00 | 0.00 | 0.00 | 85 | 1015.1 |
| 20260506223458 | 24 | 219 | 22.5 | 24.1 | 0.00 | 0.00 | 0.00 | 84 | 1015.2 |
| 20260506222958 | 24 | 212 | 22.5 | 24.1 | 0.00 | 0.00 | 0.00 | 85 | 1015.3 |
| 20260506222459 | 24 | 217 | 20.9 | 22.5 | 0.00 | 0.00 | 0.00 | 84 | 1015.4 |
| 20260506221959 | 25 | 212 | 14.5 | 16.1 | 0.00 | 0.00 | 0.00 | 85 | 1015.4 |
| 20260506221458 | 25 | 210 | 16.1 | 20.9 | 0.00 | 0.00 | 0.00 | 84 | 1015.5 |
| 20260506220958 | 25 | 213 | 14.5 | 17.7 | 0.00 | 0.00 | 0.00 | 84 | 1015.5 |
| 20260506220459 | 25 | 211 | 16.1 | 19.3 | 0.00 | 0.00 | 0.00 | 84 | 1015.5 |
| 20260506215959 | 25 | 219 | 14.5 | 17.7 | 0.00 | 0.00 | 0.00 | 83 | 1015.6 |
| 20260506215458 | 25 | 192 | 17.7 | 20.9 | 0.00 | 0.00 | 0.00 | 82 | 1015.6 |
| 20260506214958 | 25 | 197 | 17.7 | 20.9 | 0.00 | 0.00 | 0.00 | 83 | 1015.6 |
| 20260506214500 | 25 | 193 | 14.5 | 19.3 | 0.00 | 0.00 | 0.00 | 83 | 1015.5 |
| 20260506213958 | 25 | 212 | 11.3 | 14.5 | 0.00 | 0.00 | 0.00 | 82 | 1015.6 |
| 20260506213458 | 25 | 227 | 14.5 | 16.1 | 0.00 | 0.00 | 0.00 | 82 | 1015.7 |
| 20260506212958 | 25 | 218 | 12.9 | 16.1 | 0.00 | 0.00 | 0.00 | 82 | 1015.6 |
| 20260506212458 | 25 | 222 | 11.3 | 16.1 | 0.00 | 0.00 | 0.00 | 82 | 1015.6 |
| 20260506211959 | 25 | 222 | 16.1 | 19.3 | 0.00 | 0.00 | 0.00 | 81 | 1015.6 |
| 20260506211459 | 25 | 210 | 14.5 | 16.1 | 0.00 | 0.00 | 0.00 | 83 | 1015.5 |
| 20260506210958 | 25 | 201 | 16.1 | 19.3 | 0.00 | 0.00 | 0.00 | 83 | 1015.4 |
| 20260506210458 | 25 | 211 | 14.5 | 22.5 | 0.00 | 0.00 | 0.00 | 82 | 1015.5 |
| 20260506205959 | 25 | 196 | 17.7 | 19.3 | 0.00 | 0.00 | 0.00 | 82 | 1015.6 |
| 20260506205459 | 25 | 206 | 20.9 | 24.1 | 0.00 | 0.00 | 0.00 | 81 | 1015.6 |
| 20260506204958 | 25 | 208 | 16.1 | 19.3 | 0.00 | 0.00 | 0.00 | 82 | 1015.5 |
| 20260506204458 | 25 | 198 | 20.9 | 24.1 | 0.00 | 0.00 | 0.00 | 80 | 1015.6 |
| 20260506203958 | 25 | 201 | 16.1 | 17.7 | 0.00 | 0.00 | 0.00 | 82 | 1015.8 |
| 20260506203459 | 25 | 195 | 17.7 | 19.3 | 0.00 | 0.00 | 0.00 | 81 | 1015.9 |
| 20260506202958 | 25 | 219 | 16.1 | 19.3 | 0.00 | 0.00 | 0.00 | 78 | 1015.9 |
| 20260506202500 | 25 | 214 | 17.7 | 20.9 | 0.00 | 0.00 | 0.00 | 79 | 1015.9 |
| 20260506201958 | 25 | 212 | 17.7 | 20.9 | 0.00 | 0.00 | 0.00 | 78 | 1015.9 |
| 20260506201458 | 25 | 202 | 14.5 | 17.7 | 0.00 | 0.00 | 0.00 | 79 | 1016.0 |
| 20260506200958 | 25 | 190 | 16.1 | 17.7 | 0.00 | 0.00 | 0.00 | 80 | 1016.1 |
| 20260506200458 | 25 | 195 | 14.5 | 19.3 | 0.00 | 0.00 | 0.00 | 81 | 1016.0 |
| 20260506195958 | 25 | 223 | 17.7 | 20.9 | 0.00 | 0.00 | 0.00 | 79 | 1016.2 |
| 20260506195458 | 25 | 220 | 14.5 | 19.3 | 0.00 | 0.00 | 0.00 | 79 | 1016.4 |
| 20260506195000 | 25 | 216 | 14.5 | 16.1 | 0.00 | 0.00 | 0.00 | 78 | 1016.3 |
| 20260506194459 | 25 | 222 | 16.1 | 19.3 | 0.00 | 0.00 | 0.00 | 79 | 1016.4 |
| 20260506193959 | 25 | 231 | 12.9 | 14.5 | 0.00 | 0.00 | 0.00 | 77 | 1016.4 |
| 20260506193458 | 25 | 222 | 14.5 | 17.7 | 0.00 | 0.00 | 0.00 | 76 | 1016.4 |
| 20260506193001 | 25 | 228 | 17.7 | 20.9 | 0.00 | 0.00 | 0.00 | 76 | 1016.5 |
| 20260506192458 | 25 | 228 | 17.7 | 19.3 | 0.00 | 0.00 | 0.00 | 76 | 1016.5 |
| 20260506192002 | 25 | 222 | 12.9 | 14.5 | 0.00 | 0.00 | 0.00 | 78 | 1016.3 |
| 20260506191459 | 25 | 228 | 11.3 | 14.5 | 0.00 | 0.00 | 0.00 | 77 | 1016.4 |
| 20260506190958 | 25 | 228 | 12.9 | 14.5 | 0.00 | 0.00 | 0.00 | 75 | 1016.5 |
| 20260506190458 | 25 | 229 | 11.3 | 14.5 | 0.00 | 0.00 | 0.00 | 77 | 1016.4 |
| 20260506190000 | 25 | 238 | 12.9 | 14.5 | 0.00 | 0.00 | 0.00 | 78 | 1016.6 |
| 20260506185459 | 25 | 234 | 14.5 | 16.1 | 0.00 | 0.00 | 0.00 | 78 | 1016.7 |
| 20260506184958 | 25 | 218 | 14.5 | 17.7 | 0.00 | 0.00 | 0.00 | 77 | 1016.6 |
| 20260506184458 | 25 | 232 | 16.1 | 19.3 | 0.00 | 0.00 | 0.00 | 79 | 1016.9 |
| 20260506183958 | 25 | 226 | 16.1 | 19.3 | 0.00 | 0.00 | 0.00 | 77 | 1017.0 |
| 20260506183500 | 25 | 230 | 19.3 | 22.5 | 0.00 | 0.00 | 0.00 | 77 | 1016.9 |
| 20260506182958 | 25 | 231 | 16.1 | 20.9 | 0.00 | 0.00 | 0.00 | 79 | 1017.0 |
| 20260506182459 | 25 | 227 | 14.5 | 16.1 | 0.00 | 0.00 | 0.00 | 78 | 1017.0 |
| 20260506181959 | 25 | 213 | 14.5 | 19.3 | 0.00 | 0.00 | 0.00 | 77 | 1017.0 |
| 20260506181459 | 25 | 241 | 14.5 | 17.7 | 0.00 | 0.00 | 0.00 | 78 | 1017.3 |
| 20260506180958 | 25 | 234 | 16.1 | 19.3 | 0.00 | 0.00 | 0.00 | 78 | 1017.2 |
| 20260506180459 | 25 | 239 | 16.1 | 17.7 | 0.00 | 0.00 | 0.00 | 78 | 1017.2 |
| 20260506175959 | 25 | 233 | 11.3 | 12.9 | 0.00 | 0.00 | 0.00 | 77 | 1017.2 |
| 20260506175459 | 25 | 235 | 12.9 | 14.5 | 0.00 | 0.00 | 0.00 | 79 | 1017.2 |
| 20260506174958 | 25 | 222 | 12.9 | 14.5 | 0.00 | 0.00 | 0.00 | 78 | 1017.1 |
| 20260506174459 | 25 | 223 | 14.5 | 17.7 | 0.00 | 0.00 | 0.00 | 77 | 1017.2 |
| 20260506173958 | 25 | 218 | 16.1 | 19.3 | 0.00 | 0.00 | 0.00 | 78 | 1017.3 |
| 20260506173458 | 25 | 225 | 12.9 | 14.5 | 0.00 | 0.00 | 0.00 | 79 | 1017.5 |
| 20260506173000 | 25 | 232 | 11.3 | 14.5 | 0.00 | 0.00 | 0.00 | 78 | 1017.2 |
| 20260506172458 | 25 | 229 | 11.3 | 12.9 | 0.00 | 0.00 | 0.00 | 80 | 1017.4 |
| 20260506171958 | 25 | 230 | 16.1 | 19.3 | 0.00 | 0.00 | 0.00 | 79 | 1017.1 |
| 20260506171459 | 25 | 222 | 11.3 | 12.9 | 0.00 | 0.00 | 0.00 | 80 | 1017.2 |
| 20260506170959 | 25 | 216 | 12.9 | 14.5 | 0.00 | 0.00 | 0.00 | 78 | 1017.1 |
| 20260506170459 | 25 | 220 | 11.3 | 14.5 | 0.00 | 0.00 | 0.00 | 78 | 1017.2 |
| 20260506165958 | 25 | 221 | 12.9 | 14.5 | 0.00 | 0.00 | 0.00 | 77 | 1017.6 |
| 20260506165458 | 25 | 223 | 16.1 | 19.3 | 0.00 | 0.00 | 0.00 | 78 | 1017.3 |
| 20260506164959 | 25 | 216 | 11.3 | 14.5 | 0.00 | 0.00 | 0.00 | 79 | 1017.1 |
| 20260506164459 | 24 | 218 | 14.5 | 16.1 | 0.00 | 0.00 | 0.00 | 78 | 1017.2 |
| 20260506163959 | 24 | 221 | 14.5 | 16.1 | 0.00 | 0.00 | 0.00 | 80 | 1016.9 |
| 20260506163458 | 24 | 200 | 8.0 | 9.7 | 0.00 | 0.00 | 0.00 | 81 | 1016.8 |
| 20260506162959 | 24 | 214 | 12.9 | 16.1 | 0.00 | 0.00 | 0.00 | 82 | 1017.1 |
| 20260506162459 | 24 | 201 | 16.1 | 19.3 | 0.00 | 0.00 | 0.00 | 81 | 1017.1 |
| 20260506161959 | 24 | 188 | 17.7 | 19.3 | 0.00 | 0.00 | 0.00 | 80 | 1017.0 |
| 20260506161459 | 24 | 216 | 17.7 | 20.9 | 0.00 | 0.00 | 0.00 | 81 | 1017.4 |
| 20260506160959 | 24 | 180 | 16.1 | 17.7 | 0.00 | 0.00 | 0.00 | 82 | 1016.9 |
| 20260506160503 | 24 | 210 | 14.5 | 16.1 | 0.00 | 0.00 | 0.00 | 82 | 1016.9 |
| 20260506155959 | 24 | 207 | 14.5 | 16.1 | 0.00 | 0.00 | 0.00 | 81 | 1017.0 |
| 20260506155459 | 24 | 195 | 14.5 | 16.1 | 0.00 | 0.00 | 0.00 | 81 | 1016.9 |
| 20260506154958 | 24 | 208 | 14.5 | 17.7 | 0.00 | 0.00 | 0.00 | 80 | 1017.0 |
| 20260506154500 | 24 | 201 | 16.1 | 19.3 | 0.00 | 0.00 | 0.00 | 81 | 1016.6 |
| 20260506153958 | 24 | 201 | 16.1 | 19.3 | 0.00 | 0.00 | 0.00 | 82 | 1016.6 |
| 20260506153458 | 23 | 205 | 16.1 | 17.7 | 0.00 | 0.00 | 0.00 | 83 | 1016.6 |
| 20260506152959 | 23 | 210 | 16.1 | 19.3 | 0.00 | 0.00 | 0.00 | 83 | 1016.9 |
| 20260506152458 | 24 | 209 | 16.1 | 19.3 | 0.00 | 0.00 | 0.00 | 82 | 1016.6 |
| 20260506151958 | 24 | 189 | 19.3 | 22.5 | 0.00 | 0.00 | 0.00 | 82 | 1016.4 |
| 20260506151459 | 23 | 195 | 16.1 | 19.3 | 0.00 | 0.00 | 0.00 | 82 | 1016.3 |
| 20260506150959 | 24 | 193 | 17.7 | 19.3 | 0.00 | 0.00 | 0.00 | 84 | 1016.5 |
| 20260506150459 | 23 | 200 | 12.9 | 16.1 | 0.00 | 0.00 | 0.00 | 82 | 1016.3 |
| 20260506145959 | 23 | 193 | 17.7 | 20.9 | 0.00 | 0.00 | 0.00 | 82 | 1016.4 |
| 20260506145459 | 23 | 189 | 17.7 | 20.9 | 0.00 | 0.00 | 0.00 | 81 | 1016.5 |
| 20260506144958 | 23 | 189 | 19.3 | 22.5 | 0.00 | 0.00 | 0.00 | 83 | 1016.3 |
| 20260506144459 | 23 | 200 | 16.1 | 17.7 | 0.00 | 0.00 | 0.00 | 81 | 1016.2 |
| 20260506143959 | 23 | 197 | 16.1 | 17.7 | 0.00 | 0.00 | 0.00 | 82 | 1016.2 |
| 20260506143459 | 23 | 196 | 17.7 | 20.9 | 0.00 | 0.00 | 0.00 | 82 | 1016.3 |
| 20260506142958 | 23 | 189 | 20.9 | 22.5 | 0.00 | 0.00 | 0.00 | 82 | 1016.4 |
| 20260506142458 | 23 | 184 | 20.9 | 24.1 | 0.00 | 0.00 | 0.00 | 81 | 1016.3 |
| 20260506141958 | 23 | 207 | 22.5 | 27.4 | 0.00 | 0.00 | 0.00 | 80 | 1016.2 |
| 20260506141458 | 23 | 206 | 20.9 | 24.1 | 0.00 | 0.00 | 0.00 | 81 | 1016.2 |
| 20260506140958 | 23 | 197 | 20.9 | 25.7 | 0.00 | 0.00 | 0.00 | 80 | 1016.1 |
| 20260506140458 | 23 | 194 | 17.7 | 19.3 | 0.00 | 0.00 | 0.00 | 80 | 1016.0 |
| 20260506135958 | 23 | 204 | 19.3 | 22.5 | 0.00 | 0.00 | 0.00 | 81 | 1016.0 |
| 20260506135458 | 23 | 206 | 19.3 | 22.5 | 0.00 | 0.00 | 0.00 | 81 | 1015.9 |
| 20260506134958 | 23 | 191 | 17.7 | 20.9 | 0.00 | 0.00 | 0.00 | 80 | 1015.7 |
| 20260506134458 | 23 | 206 | 17.7 | 19.3 | 0.00 | 0.00 | 0.00 | 80 | 1015.8 |
| 20260506133959 | 23 | 194 | 14.5 | 17.7 | 0.00 | 0.00 | 0.00 | 81 | 1015.8 |
| 20260506133458 | 23 | 194 | 16.1 | 19.3 | 0.00 | 0.00 | 0.00 | 81 | 1015.6 |
| 20260506132959 | 23 | 201 | 12.9 | 14.5 | 0.00 | 0.00 | 0.00 | 81 | 1015.7 |
| 20260506132459 | 23 | 196 | 17.7 | 19.3 | 0.00 | 0.00 | 0.00 | 81 | 1015.5 |
| 20260506131958 | 23 | 198 | 17.7 | 20.9 | 0.00 | 0.00 | 0.00 | 81 | 1015.3 |
| 20260506131459 | 23 | 204 | 16.1 | 17.7 | 0.00 | 0.00 | 0.00 | 82 | 1015.3 |
| 20260506130959 | 23 | 200 | 17.7 | 20.9 | 0.00 | 0.00 | 0.00 | 82 | 1015.2 |
| 20260506130459 | 23 | 194 | 19.3 | 22.5 | 0.00 | 0.00 | 0.00 | 83 | 1015.2 |
| 20260506125958 | 23 | 194 | 20.9 | 24.1 | 0.00 | 0.00 | 0.00 | 82 | 1015.2 |
| 20260506125459 | 23 | 200 | 12.9 | 16.1 | 0.00 | 0.00 | 0.00 | 83 | 1015.3 |
| 20260506124959 | 23 | 203 | 16.1 | 17.7 | 0.00 | 0.00 | 0.00 | 84 | 1015.2 |
| 20260506124459 | 23 | 192 | 16.1 | 19.3 | 0.00 | 0.00 | 0.00 | 84 | 1015.2 |
| 20260506123959 | 23 | 184 | 16.1 | 19.3 | 0.00 | 0.00 | 0.00 | 85 | 1015.3 |
| 20260506123459 | 22 | 192 | 11.3 | 14.5 | 0.00 | 0.00 | 0.00 | 86 | 1015.2 |
| 20260506122959 | 22 | 179 | 14.5 | 16.1 | 0.00 | 0.00 | 0.00 | 87 | 1015.3 |
| 20260506122458 | 22 | 184 | 14.5 | 16.1 | 0.00 | 0.00 | 0.00 | 87 | 1015.2 |
| 20260506121958 | 22 | 185 | 12.9 | 14.5 | 0.00 | 0.00 | 0.00 | 87 | 1015.2 |
| 20260506121459 | 22 | 189 | 11.3 | 11.3 | 0.00 | 0.00 | 0.00 | 88 | 1015.2 |
| 20260506120959 | 22 | 180 | 11.3 | 12.9 | 0.00 | 0.00 | 0.00 | 88 | 1015.2 |
| 20260506120500 | 22 | 189 | 9.7 | 11.3 | 0.00 | 0.00 | 0.00 | 89 | 1015.2 |
| 20260506115958 | 22 | 184 | 9.7 | 9.7 | 0.00 | 0.00 | 0.00 | 89 | 1015.2 |
| 20260506115459 | 22 | 197 | 9.7 | 11.3 | 0.00 | 0.00 | 0.00 | 89 | 1015.1 |
| 20260506114959 | 22 | 187 | 11.3 | 12.9 | 0.00 | 0.00 | 0.00 | 89 | 1015.1 |
| 20260506114459 | 22 | 189 | 11.3 | 11.3 | 0.00 | 0.00 | 0.00 | 89 | 1015.0 |
| 20260506113959 | 22 | 206 | 11.3 | 12.9 | 0.00 | 0.00 | 0.00 | 89 | 1015.0 |
| 20260506113502 | 22 | 197 | 11.3 | 11.3 | 0.00 | 0.00 | 0.00 | 90 | 1015.0 |
| 20260506112959 | 22 | 206 | 11.3 | 12.9 | 0.00 | 0.00 | 0.00 | 90 | 1014.9 |
| 20260506112500 | 22 | 192 | 12.9 | 14.5 | 0.00 | 0.00 | 0.00 | 89 | 1015.0 |
| 20260506112001 | 22 | 186 | 12.9 | 14.5 | 0.00 | 0.00 | 0.00 | 89 | 1015.0 |
| 20260506111501 | 22 | 190 | 12.9 | 12.9 | 0.00 | 0.00 | 0.00 | 89 | 1014.9 |
| 20260506110959 | 22 | 186 | 12.9 | 14.5 | 0.00 | 0.00 | 0.00 | 89 | 1014.9 |
| 20260506110459 | 22 | 185 | 12.9 | 14.5 | 0.00 | 0.00 | 0.00 | 88 | 1014.9 |
| 20260506105958 | 22 | 183 | 9.7 | 11.3 | 0.00 | 0.00 | 0.00 | 89 | 1014.8 |
| 20260506105458 | 22 | 172 | 12.9 | 14.5 | 0.00 | 0.00 | 0.00 | 88 | 1014.9 |
| 20260506104958 | 22 | 173 | 12.9 | 14.5 | 0.00 | 0.00 | 0.00 | 88 | 1014.8 |
| 20260506104500 | 22 | 170 | 12.9 | 14.5 | 0.00 | 0.00 | 0.00 | 88 | 1014.8 |
| 20260506103959 | 22 | 167 | 11.3 | 14.5 | 0.00 | 0.00 | 0.00 | 89 | 1014.8 |
| 20260506103458 | 22 | 172 | 16.1 | 17.7 | 0.00 | 0.00 | 0.00 | 89 | 1014.7 |
| 20260506102958 | 22 | 172 | 12.9 | 14.5 | 0.00 | 0.00 | 0.00 | 89 | 1014.7 |
| 20260506102458 | 22 | 168 | 12.9 | 16.1 | 0.00 | 0.00 | 0.00 | 89 | 1014.8 |
| 20260506101958 | 22 | 175 | 11.3 | 12.9 | 0.00 | 0.00 | 0.00 | 89 | 1014.8 |
| 20260506101458 | 22 | 175 | 12.9 | 14.5 | 0.00 | 0.00 | 0.00 | 90 | 1014.7 |
| 20260506101000 | 22 | 178 | 11.3 | 12.9 | 0.00 | 0.00 | 0.00 | 90 | 1014.7 |
| 20260506100500 | 22 | 180 | 11.3 | 11.3 | 0.00 | 0.00 | 0.00 | 90 | 1014.7 |
| 20260506095958 | 22 | 174 | 11.3 | 11.3 | 0.00 | 0.00 | 0.00 | 90 | 1014.7 |
| 20260506095459 | 22 | 170 | 12.9 | 14.5 | 0.00 | 0.00 | 0.00 | 90 | 1014.6 |
| 20260506094958 | 22 | 163 | 12.9 | 14.5 | 0.00 | 0.00 | 0.00 | 90 | 1014.7 |
| 20260506094459 | 22 | 167 | 9.7 | 11.3 | 0.00 | 0.00 | 0.00 | 91 | 1014.7 |
| 20260506093958 | 22 | 161 | 11.3 | 12.9 | 0.00 | 0.00 | 0.00 | 91 | 1014.6 |
| 20260506093458 | 22 | 175 | 9.7 | 9.7 | 0.00 | 0.00 | 0.00 | 91 | 1014.6 |
| 20260506093000 | 22 | 176 | 9.7 | 9.7 | 0.00 | 0.00 | 0.00 | 91 | 1014.7 |
| 20260506092458 | 22 | 174 | 11.3 | 12.9 | 0.00 | 0.00 | 0.00 | 91 | 1014.6 |
| 20260506091958 | 22 | 179 | 9.7 | 9.7 | 0.00 | 0.00 | 0.00 | 92 | 1014.6 |
| 20260506091504 | 22 | 165 | 11.3 | 12.9 | 0.00 | 0.00 | 0.00 | 92 | 1014.6 |
| 20260506090528 | 22 | 169 | 11.3 | 11.3 | 0.00 | 0.00 | 0.00 | 92 | 1014.6 |
| 20260506090008 | 22 | 168 | 9.7 | 9.7 | 0.00 | 0.00 | 0.00 | 92 | 1014.6 |
| 20260506085458 | 22 | 173 | 8.0 | 9.7 | 0.00 | 0.00 | 0.00 | 92 | 1014.7 |
| 20260506084959 | 22 | 174 | 8.0 | 9.7 | 0.00 | 0.00 | 0.00 | 92 | 1014.6 |
| 20260506084458 | 22 | 169 | 9.7 | 9.7 | 0.00 | 0.00 | 0.00 | 92 | 1014.7 |
| 20260506083958 | 22 | 169 | 9.7 | 11.3 | 0.00 | 0.00 | 0.00 | 92 | 1014.6 |
| 20260506083458 | 22 | 153 | 9.7 | 11.3 | 0.00 | 0.00 | 0.00 | 92 | 1014.4 |
| 20260506082959 | 22 | 152 | 11.3 | 12.9 | 0.00 | 0.00 | 0.00 | 92 | 1014.5 |
| 20260506082458 | 22 | 164 | 9.7 | 11.3 | 0.00 | 0.00 | 0.00 | 92 | 1014.5 |
| 20260506081958 | 22 | 152 | 9.7 | 9.7 | 0.00 | 0.00 | 0.00 | 92 | 1014.5 |
| 20260506081458 | 22 | 150 | 9.7 | 11.3 | 0.00 | 0.00 | 0.00 | 92 | 1014.6 |
| 20260506080959 | 22 | 150 | 11.3 | 11.3 | 0.00 | 0.00 | 0.00 | 92 | 1014.5 |
| 20260506080458 | 22 | 162 | 8.0 | 9.7 | 0.00 | 0.00 | 0.00 | 91 | 1014.6 |